Hauptseite
METAR-TAF:

METAR-TAF

Flughäfen :

Pruniers

Romorantin, Frankreich

Breite: 47-19N, Länge: 001-41E, Höhe: 85 m

Beobachtung

Neuester Wetterbericht von vor 33 Minuten, um 13:00 UTC
Wind 7 kt aus West/Südwest, variierte zwischen Süd und Nordwest
Temperatur 25°C
Luftfeuchtigkeit 47%
Luftdruck 1018 hPa
Sichtweite 10 km oder mehr
Durchbrochene Bewölkung in der Höhe von 4900 ft
Geschlossene Wolkendecke in der Höhe von 7200 ft

METAR: LFYR 171300Z AUTO 25007KT 180V320 9999 BKN049 OVC072 25/13 Q1018 NOSIG

Zeit: 15:33 (13:33 UTC)


TAF: fehlend

Wetterbeobachtungen und Prognosen von mehr als 4000 Flughäfen (METAR und TAF Bericht).

Die verfügbaren Stationen werden durch gelbe und rote Markierungen auf der Karte dargestellt.

Führen Sie die Maus auf sie, um den Namen der Station zu sehen.

Darauf klicken, um die Beobachtung von Wetterbeobachtungen und Prognosen zu sehen.

Um die Karte zu ändern : klicken Sie auf den grünen Tasten mit einem schwarzen Kreuz Zum Vergrößern, auf den grünen Button mit einem Gedankenstrich zu verkleinern, oder auf die grünen Pfeile für benachbarte Karten.


METAR-TAF: